• location
  • image
mod_vvisit_countermod_vvisit_countermod_vvisit_countermod_vvisit_countermod_vvisit_countermod_vvisit_counter
mod_vvisit_counterToday627
mod_vvisit_counterYesterday1280
mod_vvisit_counterThis week4560
mod_vvisit_counterLast week7862
mod_vvisit_counterThis month23889
mod_vvisit_counterLast month25097
mod_vvisit_counterAll days590842

We have: 25 guests, 1 bots online
Your IP: 54.166.82.161
 , 
Today: Mar 23, 2017
Airport

AP V2 EN

 

 

You can watch a film about services of Siauliai International Airport

Today

Thursday, 23 March 2017

Weather Forecast

Siauliai °C
   

Aviation Weather Forecast

[source: ADDS]
METAR
EYSA 230350Z 23007KT CAVOK 00/M00 Q1022 R32R/09//95 R32L/09//95 BLU NOSIG =
TAF
TAF EYSA 230200Z 2303/2312 23006KT 6000 NSC TEMPO 2303/2307 1500 MIFG BR SCT003 =
SR / SS: 04:20 / 16:48 UTC (EYSA 2017-03-23)

Search

Who's Online

We have 26 guests online

tic logo en